Temple Hills, Maryland
Current Conditions -  °F | °C
As of 1:58 PM on Friday 28 Nov 2014 (Local Time) from KADW Reporting Station
Broken Clouds Broken Clouds  
Wind Chill: 30°   Ceiling: 4600
Heat Index: 38°   Visibility: 10mi
Dew Point: 18°   Wind: 14mph
Humidity: 44%   Direction: 300°WNW
Pressure: 30.25"   Gusts: NA
Location:  38.82°N, 76.95°W
Report Text: KADW 281858Z AUTO 30012KT 10SM BKN046 04/M08 A3025 RMK AO2 SLP253 T00351077 $
Loading
Personal Weather Stations






























Interactive Weather Map New forecast layout! Learn more

10-Day Weather Forecast

Advertisements
Track Severe Weather on mobile